createdAt,value
2023-04-24T00:00:27.511Z,1.00
2023-04-24T00:02:58.234Z,0.90
2023-04-24T00:05:25.697Z,0.95
2023-04-24T00:07:53.849Z,0.75
2023-04-24T00:10:20.723Z,0.70
2023-04-24T00:12:47.546Z,0.68
2023-04-24T00:15:14.036Z,0.47
2023-04-24T00:17:40.634Z,0.85
2023-04-24T00:20:08.044Z,0.70
2023-04-24T00:22:34.792Z,0.80
2023-04-24T00:25:01.590Z,0.73
2023-04-24T00:27:28.355Z,0.80
2023-04-24T00:29:55.288Z,0.60
2023-04-24T00:32:21.806Z,0.80
2023-04-24T00:34:48.817Z,0.60
2023-04-24T00:37:15.554Z,0.80
2023-04-24T00:39:45.285Z,0.55
2023-04-24T00:42:12.809Z,0.70
2023-04-24T00:44:40.119Z,0.88
2023-04-24T00:47:06.998Z,0.98
2023-04-24T00:49:33.878Z,1.00
2023-04-24T00:52:01.292Z,1.13
2023-04-24T00:54:27.830Z,1.00
2023-04-24T00:56:54.466Z,0.98
2023-04-24T00:59:21.323Z,1.13
2023-04-24T01:01:48.081Z,0.80
2023-04-24T01:04:15.270Z,0.68
2023-04-24T01:06:44.401Z,0.70
2023-04-24T01:09:12.821Z,0.55
2023-04-24T01:11:39.393Z,0.60
2023-04-24T01:14:06.162Z,0.88
2023-04-24T01:16:32.708Z,0.50
2023-04-24T01:19:01.053Z,0.50
2023-04-24T01:21:31.389Z,0.60
2023-04-24T01:23:58.142Z,0.68
2023-04-24T01:26:26.633Z,0.50
2023-04-24T01:28:56.397Z,0.60
2023-04-24T01:31:23.822Z,0.80
2023-04-24T01:33:52.248Z,0.70
2023-04-24T01:36:19.117Z,0.80
2023-04-24T01:38:45.905Z,0.70
2023-04-24T01:41:14.269Z,0.70
2023-04-24T01:43:41.334Z,0.70
2023-04-24T01:46:08.225Z,0.77
2023-04-24T01:48:36.810Z,0.50
2023-04-24T01:51:03.580Z,0.80
2023-04-24T01:53:30.369Z,0.70
2023-04-24T01:55:57.162Z,0.80
2023-04-24T01:58:25.621Z,0.80
2023-04-24T02:00:52.228Z,0.60
2023-04-24T02:03:18.954Z,1.00
2023-04-24T02:05:46.363Z,0.70
2023-04-24T02:08:13.204Z,0.80
2023-04-24T02:10:39.630Z,0.90
2023-04-24T02:13:06.213Z,1.10
2023-04-24T02:15:33.076Z,0.95
2023-04-24T02:17:59.587Z,0.80
2023-04-24T02:20:26.223Z,0.90
2023-04-24T02:22:53.538Z,0.77
2023-04-24T02:25:20.506Z,0.88
2023-04-24T02:27:47.332Z,1.02
2023-04-24T02:30:14.079Z,0.70
2023-04-24T02:32:40.846Z,0.63
2023-04-24T02:35:11.506Z,0.90
2023-04-24T02:37:38.107Z,1.00
2023-04-24T02:40:07.145Z,0.73
2023-04-24T02:42:33.925Z,0.60
2023-04-24T02:45:00.725Z,1.08
2023-04-24T02:47:27.848Z,1.05
2023-04-24T02:49:54.687Z,1.05
2023-04-24T02:52:21.762Z,1.00
2023-04-24T02:54:48.342Z,0.80
2023-04-24T02:57:15.014Z,0.70
2023-04-24T02:59:42.771Z,0.77
2023-04-24T03:02:09.819Z,0.80
2023-04-24T03:04:36.523Z,0.90
2023-04-24T03:07:03.264Z,1.13
2023-04-24T03:09:29.709Z,0.63
2023-04-24T03:11:56.782Z,0.65
2023-04-24T03:14:25.112Z,1.00
2023-04-24T03:16:51.648Z,0.85
2023-04-24T03:19:18.312Z,1.10
2023-04-24T03:21:56.196Z,0.98
2023-04-24T03:24:23.604Z,0.90
2023-04-24T03:26:50.612Z,0.80
2023-04-24T03:29:37.098Z,0.70
2023-04-24T03:32:03.949Z,0.70
2023-04-24T03:34:30.735Z,0.80
2023-04-24T03:36:58.295Z,0.70
2023-04-24T03:39:26.249Z,0.82
2023-04-24T03:41:55.548Z,1.10
2023-04-24T03:44:27.306Z,0.80
2023-04-24T03:46:54.139Z,0.70
2023-04-24T03:49:23.084Z,0.68
2023-04-24T03:51:49.723Z,0.80
2023-04-24T03:54:25.010Z,0.80
2023-04-24T03:56:52.968Z,0.65
2023-04-24T03:59:20.158Z,0.60
2023-04-24T04:01:54.124Z,0.88
2023-04-24T04:04:21.172Z,0.65
2023-04-24T04:06:48.192Z,0.88
2023-04-24T04:09:14.883Z,0.68
2023-04-24T04:11:41.624Z,0.50
2023-04-24T04:14:08.163Z,0.65
2023-04-24T04:16:40.103Z,0.60
2023-04-24T04:19:07.394Z,0.50
2023-04-24T04:21:34.866Z,0.50
2023-04-24T04:24:10.920Z,0.65
2023-04-24T04:26:42.498Z,0.50
2023-04-24T04:29:11.894Z,0.60
2023-04-24T04:31:42.714Z,0.50
2023-04-24T04:34:13.707Z,0.45
2023-04-24T04:36:42.371Z,0.50
2023-04-24T04:39:22.284Z,0.52
2023-04-24T04:41:59.756Z,0.50
2023-04-24T04:44:31.890Z,0.60
2023-04-24T04:47:01.620Z,0.50
2023-04-24T04:49:31.994Z,0.50
2023-04-24T04:51:59.124Z,0.70
2023-04-24T04:54:29.834Z,0.60
2023-04-24T04:56:58.196Z,0.63
2023-04-24T04:59:24.808Z,0.60
2023-04-24T05:01:57.183Z,0.60
2023-04-24T05:04:24.217Z,0.73
2023-04-24T05:06:52.244Z,0.82
2023-04-24T05:09:19.617Z,0.70
2023-04-24T05:11:53.956Z,0.57
2023-04-24T05:14:22.873Z,0.68
2023-04-24T05:16:50.280Z,0.68
2023-04-24T05:19:19.805Z,0.70
2023-04-24T05:21:46.393Z,0.45
2023-04-24T05:24:12.908Z,0.70
2023-04-24T05:26:51.422Z,1.05
2023-04-24T05:29:23.292Z,0.95
2023-04-24T05:31:50.078Z,1.08
2023-04-24T05:34:17.820Z,1.13
2023-04-24T05:36:45.923Z,0.98
2023-04-24T05:39:12.762Z,1.17
2023-04-24T05:41:39.642Z,1.08
2023-04-24T05:44:06.345Z,1.10
2023-04-24T05:46:33.061Z,1.13
2023-04-24T05:48:59.872Z,1.20
2023-04-24T05:51:26.928Z,1.30
2023-04-24T05:53:53.818Z,1.30
2023-04-24T05:56:21.486Z,1.30
2023-04-24T05:58:50.120Z,1.00
2023-04-24T06:01:17.010Z,1.00
2023-04-24T06:03:47.524Z,0.90
2023-04-24T06:06:14.500Z,0.80
2023-04-24T06:08:43.706Z,0.75
2023-04-24T06:11:10.871Z,0.80
2023-04-24T06:13:39.120Z,1.00
2023-04-24T06:16:40.164Z,1.00
2023-04-24T06:19:18.317Z,1.00
2023-04-24T06:21:44.887Z,1.02
2023-04-24T06:24:11.693Z,1.10
2023-04-24T06:26:38.646Z,1.05
2023-04-24T06:29:08.694Z,1.02
2023-04-24T06:31:38.349Z,1.00
2023-04-24T06:34:05.160Z,0.85
2023-04-24T06:36:32.221Z,0.98
2023-04-24T06:39:00.194Z,1.02
2023-04-24T06:41:26.965Z,1.00
2023-04-24T06:43:53.671Z,1.10
2023-04-24T06:46:20.215Z,0.60
2023-04-24T06:48:46.721Z,0.70
2023-04-24T06:51:13.315Z,0.60
2023-04-24T06:53:39.979Z,0.60
2023-04-24T06:56:06.677Z,0.35
2023-04-24T06:58:33.420Z,0.40
2023-04-24T07:01:00.028Z,0.60
2023-04-24T07:03:27.372Z,0.30
2023-04-24T07:05:54.571Z,0.30
2023-04-24T07:08:23.122Z,0.50
2023-04-24T07:10:52.055Z,0.57
2023-04-24T07:13:18.859Z,0.50
2023-04-24T07:15:45.475Z,0.50
2023-04-24T07:18:12.144Z,0.60
2023-04-24T07:20:38.694Z,0.70
2023-04-24T07:23:05.668Z,0.70
2023-04-24T07:25:32.791Z,0.70
2023-04-24T07:27:59.680Z,0.50
2023-04-24T07:30:26.703Z,0.50
2023-04-24T07:32:53.584Z,0.75
2023-04-24T07:35:21.057Z,0.60
2023-04-24T07:37:47.888Z,0.80
2023-04-24T07:40:14.817Z,0.40
2023-04-24T07:42:41.484Z,0.60
2023-04-24T07:45:08.396Z,0.63
2023-04-24T07:47:35.478Z,0.90
2023-04-24T07:50:01.974Z,1.00
2023-04-24T07:52:28.453Z,0.90
2023-04-24T07:54:59.575Z,0.90
2023-04-24T07:57:26.303Z,1.42
2023-04-24T07:59:52.911Z,0.95
2023-04-24T08:02:19.550Z,1.10
2023-04-24T08:04:46.862Z,1.13
2023-04-24T08:07:15.044Z,1.00
2023-04-24T08:09:41.672Z,0.93
2023-04-24T08:12:08.479Z,1.00
2023-04-24T08:14:35.009Z,0.80
2023-04-24T08:17:02.419Z,1.10
2023-04-24T08:19:28.992Z,0.75
2023-04-24T08:21:55.854Z,0.85
2023-04-24T08:24:23.252Z,1.25
2023-04-24T08:26:51.355Z,1.15
2023-04-24T08:29:17.980Z,1.30
2023-04-24T08:31:44.559Z,1.30
2023-04-24T08:34:11.550Z,1.50
2023-04-24T08:36:46.646Z,1.35
2023-04-24T08:39:14.446Z,1.38
2023-04-24T08:41:44.088Z,1.30
2023-04-24T08:44:11.711Z,1.30
2023-04-24T08:46:38.693Z,1.55
2023-04-24T08:49:06.431Z,1.70
2023-04-24T08:51:33.019Z,1.95
2023-04-24T08:53:59.651Z,2.00
2023-04-24T08:56:27.059Z,1.63
2023-04-24T08:58:54.962Z,2.33
2023-04-24T09:01:21.951Z,2.03
2023-04-24T09:03:52.716Z,2.00
2023-04-24T09:06:20.507Z,2.20
2023-04-24T09:08:51.019Z,2.35
2023-04-24T09:11:17.979Z,2.55
2023-04-24T09:13:44.634Z,2.70
2023-04-24T09:16:11.492Z,2.75
2023-04-24T09:18:38.063Z,3.17
2023-04-24T09:21:12.056Z,3.17
2023-04-24T09:23:39.627Z,2.83
2023-04-24T09:26:06.146Z,2.83
2023-04-24T09:28:37.020Z,2.65
2023-04-24T09:31:18.500Z,2.80
2023-04-24T09:33:56.466Z,2.85
2023-04-24T09:36:38.610Z,2.72
2023-04-24T09:39:12.142Z,3.40
2023-04-24T09:41:53.082Z,2.70
2023-04-24T09:44:23.892Z,2.85
2023-04-24T09:46:52.768Z,2.45
2023-04-24T09:49:27.045Z,2.60
2023-04-24T09:52:04.378Z,3.00
2023-04-24T09:54:30.974Z,2.25
2023-04-24T09:56:58.014Z,2.10
2023-04-24T09:59:26.430Z,2.50
2023-04-24T10:01:53.392Z,1.80
2023-04-24T10:04:27.654Z,1.80
2023-04-24T10:06:57.014Z,1.90
2023-04-24T10:09:25.739Z,1.58
2023-04-24T10:11:54.416Z,2.03
2023-04-24T10:14:26.222Z,1.80
2023-04-24T10:16:56.048Z,2.17
2023-04-24T10:19:26.835Z,2.00
2023-04-24T10:21:54.049Z,1.92
2023-04-24T10:24:22.222Z,2.10
2023-04-24T10:26:49.580Z,2.08
2023-04-24T10:29:18.883Z,1.75
2023-04-24T10:31:48.856Z,1.83
2023-04-24T10:34:18.666Z,1.70
2023-04-24T10:36:55.820Z,2.00
2023-04-24T10:39:27.957Z,1.75
2023-04-24T10:41:58.706Z,1.77
2023-04-24T10:44:25.819Z,1.85
2023-04-24T10:46:56.807Z,1.70
2023-04-24T10:49:31.452Z,1.75
2023-04-24T10:52:02.626Z,1.63
2023-04-24T10:54:50.437Z,1.48
2023-04-24T10:57:20.394Z,1.55
2023-04-24T10:59:48.591Z,1.25
2023-04-24T11:02:16.472Z,1.63
2023-04-24T11:04:44.134Z,1.70
2023-04-24T11:07:11.914Z,1.38
2023-04-24T11:09:41.478Z,1.52
2023-04-24T11:12:12.369Z,1.60
2023-04-24T11:15:00.744Z,1.20
2023-04-24T11:17:39.228Z,1.20
2023-04-24T11:20:22.860Z,0.80
2023-04-24T11:22:58.854Z,1.50
2023-04-24T11:25:26.056Z,0.90
2023-04-24T11:28:05.021Z,1.30
2023-04-24T11:30:33.266Z,1.00
2023-04-24T11:33:05.586Z,3.00
2023-04-24T11:35:39.980Z,0.93
2023-04-24T11:38:23.239Z,1.10
2023-04-24T11:40:51.014Z,0.93
2023-04-24T11:43:20.268Z,0.90
2023-04-24T11:45:49.898Z,0.90
2023-04-24T11:48:22.554Z,0.70
2023-04-24T11:50:50.350Z,0.70
2023-04-24T11:53:16.843Z,0.90
2023-04-24T11:55:43.507Z,0.88
2023-04-24T11:58:09.945Z,0.95
2023-04-24T12:00:36.695Z,0.82
2023-04-24T12:03:11.269Z,0.70
2023-04-24T12:05:39.672Z,0.80
2023-04-24T12:08:06.352Z,0.93
2023-04-24T12:10:34.157Z,1.27
2023-04-24T12:13:01.591Z,0.77
2023-04-24T12:15:28.533Z,0.77
2023-04-24T12:17:57.064Z,0.70
2023-04-24T12:20:32.274Z,1.10
2023-04-24T12:23:00.898Z,1.15
2023-04-24T12:25:29.582Z,1.13
2023-04-24T12:28:17.821Z,0.80
2023-04-24T12:30:49.827Z,1.08
2023-04-24T12:33:20.939Z,1.05
2023-04-24T12:35:49.510Z,0.85
2023-04-24T12:38:17.315Z,0.90
2023-04-24T12:40:44.568Z,0.80
2023-04-24T12:43:17.006Z,0.90
2023-04-24T12:45:43.596Z,1.15
2023-04-24T12:48:10.589Z,0.93
2023-04-24T12:50:37.449Z,0.90
2023-04-24T12:53:03.948Z,0.88
2023-04-24T12:55:30.587Z,0.95
2023-04-24T12:57:57.380Z,1.30
2023-04-24T13:00:24.328Z,0.80
2023-04-24T13:02:51.313Z,0.40
2023-04-24T13:05:18.114Z,0.40
2023-04-24T13:07:45.171Z,0.30
2023-04-24T13:10:11.849Z,0.30
2023-04-24T13:12:38.581Z,0.30
2023-04-24T13:15:05.867Z,0.30
2023-04-24T13:17:32.404Z,0.30
2023-04-24T13:19:59.088Z,0.40
2023-04-24T13:22:25.954Z,0.40
2023-04-24T13:24:52.563Z,0.40
2023-04-24T13:27:19.308Z,0.30
2023-04-24T13:29:46.455Z,0.45
2023-04-24T13:32:13.762Z,0.60
2023-04-24T13:34:40.605Z,0.55
2023-04-24T13:37:07.593Z,0.60
2023-04-24T13:39:34.478Z,0.43
2023-04-24T13:42:03.243Z,0.40
2023-04-24T13:44:31.112Z,0.52
2023-04-24T13:46:59.592Z,0.90
2023-04-24T13:49:27.680Z,0.70
2023-04-24T13:51:55.718Z,0.50
2023-04-24T13:54:24.222Z,0.50
2023-04-24T13:56:51.404Z,0.57
2023-04-24T13:59:17.894Z,0.60
2023-04-24T14:01:46.339Z,0.93
2023-04-24T14:04:13.690Z,0.80
2023-04-24T14:06:40.447Z,0.82
2023-04-24T14:09:08.049Z,0.70
2023-04-24T14:11:35.552Z,0.63
2023-04-24T14:14:02.434Z,0.50
2023-04-24T14:16:29.805Z,0.47
2023-04-24T14:18:57.204Z,0.55
2023-04-24T14:21:23.794Z,0.50
2023-04-24T14:23:50.501Z,0.80
2023-04-24T14:26:17.078Z,0.50
2023-04-24T14:28:43.641Z,0.60
2023-04-24T14:31:10.944Z,0.55
2023-04-24T14:33:37.542Z,0.50
2023-04-24T14:36:05.620Z,0.40
2023-04-24T14:38:32.506Z,0.50
2023-04-24T14:41:06.829Z,0.38
2023-04-24T14:43:36.045Z,0.50
2023-04-24T14:46:03.553Z,0.63
2023-04-24T14:48:30.358Z,0.40
2023-04-24T14:50:56.934Z,0.30
2023-04-24T14:53:23.898Z,0.40
2023-04-24T14:55:50.482Z,0.32
2023-04-24T14:58:17.235Z,0.20
2023-04-24T15:00:44.169Z,0.00
2023-04-24T15:03:11.384Z,0.10
2023-04-24T15:05:38.485Z,0.13
2023-04-24T15:08:05.656Z,0.10
2023-04-24T15:10:32.248Z,0.05
2023-04-24T15:12:59.095Z,0.20
2023-04-24T15:15:25.925Z,0.10
2023-04-24T15:17:52.485Z,0.30
2023-04-24T15:20:19.385Z,0.75
2023-04-24T15:22:45.999Z,0.80
2023-04-24T15:25:12.810Z,0.30
2023-04-24T15:27:43.974Z,0.60
2023-04-24T15:30:11.527Z,0.63
2023-04-24T15:32:39.836Z,0.50
2023-04-24T15:35:09.228Z,0.70
2023-04-24T15:37:37.808Z,0.60
2023-04-24T15:40:06.612Z,0.90
2023-04-24T15:42:33.269Z,1.10
2023-04-24T15:45:00.127Z,1.02
2023-04-24T15:47:27.000Z,1.17
2023-04-24T15:49:55.158Z,1.20
2023-04-24T15:52:22.542Z,1.30
2023-04-24T15:54:49.492Z,1.20
2023-04-24T15:57:16.355Z,1.27
2023-04-24T15:59:42.940Z,1.38
2023-04-24T16:02:12.464Z,1.20
2023-04-24T16:04:39.972Z,1.67
2023-04-24T16:07:06.668Z,1.35
2023-04-24T16:09:33.256Z,1.83
2023-04-24T16:11:59.846Z,1.85
2023-04-24T16:14:27.075Z,1.58
2023-04-24T16:16:55.646Z,1.80
2023-04-24T16:19:22.363Z,1.50
2023-04-24T16:21:49.101Z,1.92
2023-04-24T16:24:15.619Z,1.67
2023-04-24T16:26:42.296Z,1.63
2023-04-24T16:29:08.984Z,1.35
2023-04-24T16:31:35.853Z,1.63
2023-04-24T16:34:02.466Z,1.85
2023-04-24T16:36:29.327Z,1.65
2023-04-24T16:38:56.058Z,1.90
2023-04-24T16:41:22.898Z,1.90
2023-04-24T16:43:49.682Z,1.70
2023-04-24T16:46:16.689Z,1.85
2023-04-24T16:48:43.219Z,1.92
2023-04-24T16:51:09.864Z,1.73
2023-04-24T16:53:37.094Z,1.63
2023-04-24T16:56:04.921Z,1.90
2023-04-24T16:58:32.119Z,1.88
2023-04-24T17:00:58.845Z,2.00
2023-04-24T17:03:25.643Z,2.30
2023-04-24T17:05:52.745Z,2.25
2023-04-24T17:08:19.899Z,2.05
2023-04-24T17:10:46.728Z,2.17
2023-04-24T17:13:14.422Z,2.60
2023-04-24T17:15:42.225Z,2.33
2023-04-24T17:18:08.989Z,2.47
2023-04-24T17:20:35.590Z,2.50
2023-04-24T17:23:02.215Z,2.60
2023-04-24T17:25:29.370Z,2.83
2023-04-24T17:27:55.955Z,2.25
2023-04-24T17:30:24.926Z,2.45
2023-04-24T17:32:51.467Z,2.28
2023-04-24T17:35:18.104Z,2.38
2023-04-24T17:37:44.612Z,2.00
2023-04-24T17:40:11.990Z,2.47
2023-04-24T17:42:41.429Z,1.83
2023-04-24T17:45:08.798Z,1.85
2023-04-24T17:47:35.534Z,2.10
2023-04-24T17:50:02.552Z,2.55
2023-04-24T17:52:29.095Z,2.10
2023-04-24T17:54:55.662Z,1.73
2023-04-24T17:57:22.979Z,2.08
2023-04-24T17:59:49.603Z,1.98
2023-04-24T18:02:16.593Z,1.58
2023-04-24T18:04:43.838Z,1.60
2023-04-24T18:07:11.639Z,1.95
2023-04-24T18:09:38.359Z,1.63
2023-04-24T18:12:05.483Z,2.00
2023-04-24T18:14:32.135Z,2.10
2023-04-24T18:16:58.788Z,2.22
2023-04-24T18:19:25.651Z,2.10
2023-04-24T18:21:52.462Z,2.67
2023-04-24T18:24:19.765Z,2.08
2023-04-24T18:26:46.235Z,2.40
2023-04-24T18:29:12.779Z,2.88
2023-04-24T18:31:39.663Z,1.98
2023-04-24T18:34:06.564Z,2.17
2023-04-24T18:36:35.247Z,2.05
2023-04-24T18:39:02.261Z,1.83
2023-04-24T18:41:28.740Z,1.80
2023-04-24T18:43:58.343Z,1.60
2023-04-24T18:46:26.637Z,1.60
2023-04-24T18:48:53.216Z,1.40
2023-04-24T18:51:19.952Z,1.38
2023-04-24T18:53:46.416Z,1.60
2023-04-24T18:56:13.165Z,1.38
2023-04-24T18:58:44.250Z,1.52
2023-04-24T19:01:11.069Z,1.83
2023-04-24T19:03:37.941Z,1.45
2023-04-24T19:06:04.611Z,1.80
2023-04-24T19:08:31.199Z,1.45
2023-04-24T19:10:57.769Z,1.35
2023-04-24T19:13:24.693Z,1.80
2023-04-24T19:15:51.530Z,1.50
2023-04-24T19:18:18.200Z,2.00
2023-04-24T19:20:45.625Z,1.95
2023-04-24T19:23:12.258Z,1.83
2023-04-24T19:25:38.894Z,2.08
2023-04-24T19:28:05.809Z,3.55
2023-04-24T19:30:32.356Z,2.00
2023-04-24T19:32:58.964Z,2.03
2023-04-24T19:35:25.626Z,2.05
2023-04-24T19:37:52.256Z,1.90
2023-04-24T19:40:18.773Z,2.05
2023-04-24T19:42:45.934Z,1.63
2023-04-24T19:45:13.029Z,1.40
2023-04-24T19:47:39.820Z,1.70
2023-04-24T19:50:07.444Z,1.67
2023-04-24T19:52:34.034Z,1.73
2023-04-24T19:55:00.687Z,1.55
2023-04-24T19:57:27.506Z,1.65
2023-04-24T19:59:54.064Z,1.50
2023-04-24T20:02:20.840Z,1.52
2023-04-24T20:04:47.486Z,1.70
2023-04-24T20:07:14.120Z,1.42
2023-04-24T20:09:40.797Z,1.45
2023-04-24T20:12:07.758Z,1.38
2023-04-24T20:14:34.486Z,1.55
2023-04-24T20:17:02.689Z,1.40
2023-04-24T20:19:29.279Z,1.75
2023-04-24T20:21:55.924Z,1.27
2023-04-24T20:24:22.550Z,1.80
2023-04-24T20:26:49.551Z,1.88
2023-04-24T20:29:16.475Z,1.83
2023-04-24T20:31:43.041Z,1.52
2023-04-24T20:34:09.756Z,1.80
2023-04-24T20:36:37.146Z,1.90
2023-04-24T20:39:06.292Z,2.10
2023-04-24T20:41:33.991Z,2.00
2023-04-24T20:44:00.893Z,1.98
2023-04-24T20:46:27.454Z,1.67
2023-04-24T20:48:53.987Z,1.95
2023-04-24T20:51:20.900Z,1.83
2023-04-24T20:53:49.465Z,1.90
2023-04-24T20:56:16.859Z,1.92
2023-04-24T20:58:46.901Z,1.88
2023-04-24T21:01:15.262Z,1.60
2023-04-24T21:03:42.190Z,2.17
2023-04-24T21:06:09.869Z,1.80
2023-04-24T21:08:37.743Z,2.10
2023-04-24T21:11:05.171Z,2.03
2023-04-24T21:13:31.911Z,2.00
2023-04-24T21:15:58.642Z,1.42
2023-04-24T21:18:26.187Z,1.85
2023-04-24T21:20:53.622Z,1.90
2023-04-24T21:23:21.811Z,2.20
2023-04-24T21:25:48.434Z,1.73
2023-04-24T21:28:15.234Z,1.60
2023-04-24T21:30:42.324Z,2.08
2023-04-24T21:33:08.966Z,1.67
2023-04-24T21:35:35.637Z,2.17
2023-04-24T21:38:02.070Z,2.33
2023-04-24T21:40:29.444Z,2.08
2023-04-24T21:42:56.264Z,1.95
2023-04-24T21:45:23.051Z,1.98
2023-04-24T21:47:49.734Z,2.10
2023-04-24T21:50:16.493Z,2.67
2023-04-24T21:52:43.135Z,2.45
2023-04-24T21:55:09.946Z,1.92
2023-04-24T21:57:36.664Z,1.98
2023-04-24T22:00:06.461Z,2.22
2023-04-24T22:02:33.329Z,2.33
2023-04-24T22:05:03.420Z,2.10
2023-04-24T22:07:30.898Z,2.28
2023-04-24T22:09:57.453Z,2.40
2023-04-24T22:12:24.003Z,2.35
2023-04-24T22:14:50.907Z,2.45
2023-04-24T22:17:17.520Z,2.17
2023-04-24T22:19:52.998Z,2.17
2023-04-24T22:22:19.632Z,2.40
2023-04-24T22:24:46.246Z,2.42
2023-04-24T22:27:12.751Z,3.00
2023-04-24T22:29:39.382Z,2.80
2023-04-24T22:32:05.884Z,2.90
2023-04-24T22:34:32.768Z,2.53
2023-04-24T22:36:59.368Z,2.53
2023-04-24T22:39:26.060Z,2.60
2023-04-24T22:41:52.616Z,2.30
2023-04-24T22:44:19.116Z,3.00
2023-04-24T22:46:47.685Z,2.78
2023-04-24T22:49:16.784Z,2.92
2023-04-24T22:51:43.819Z,2.40
2023-04-24T22:54:10.615Z,3.10
2023-04-24T22:56:37.939Z,2.90
2023-04-24T22:59:04.800Z,2.92
2023-04-24T23:01:31.708Z,3.05
2023-04-24T23:03:58.624Z,3.17
2023-04-24T23:06:27.079Z,3.17
2023-04-24T23:08:53.764Z,3.13
2023-04-24T23:11:22.042Z,3.00
2023-04-24T23:13:49.694Z,3.50
2023-04-24T23:16:16.714Z,3.28
2023-04-24T23:18:43.222Z,2.78
2023-04-24T23:21:09.752Z,3.17
2023-04-24T23:23:36.398Z,3.20
2023-04-24T23:26:02.988Z,3.70
2023-04-24T23:28:29.724Z,3.28
2023-04-24T23:30:56.325Z,3.10
2023-04-24T23:33:23.343Z,3.88
2023-04-24T23:35:50.170Z,3.78
2023-04-24T23:38:16.966Z,3.40
2023-04-24T23:40:43.400Z,2.90
2023-04-24T23:43:09.872Z,3.65
2023-04-24T23:45:36.856Z,3.58
2023-04-24T23:48:04.539Z,3.42
2023-04-24T23:50:31.240Z,4.30
2023-04-24T23:52:57.869Z,3.70
2023-04-24T23:55:24.572Z,3.95
2023-04-24T23:57:51.361Z,3.80
